Jurien, Australia
Current Conditions -  °F | °C
As of 12:00 PM on Monday 24 Nov 2014 (Local Time) from YGEL Reporting Station
Clear Clear  
Wind Chill: 82°   Ceiling: Unl
Heat Index: 82°   Visibility: 6mi
Dew Point: 46°   Wind: 20mph
Humidity: 28%   Direction: 200°SSW
Pressure: 29.97"   Gusts: NA
Location:  30.31°S, 115.03°E
Report Text: YGEL 240400Z 20017KT CAVOK 28/08 Q1015
Loading
Personal Weather Stations






























Interactive Weather Map New forecast layout! Learn more

10-Day Weather Forecast

Advertisements
Track Severe Weather on mobile